sensor_id;sensor_type;location;lat;lon;timestamp;P1;P2;P0
47079;PMS5003;33067;49.296;14.470;2023-04-30T00:00:53;27;25;
47079;PMS5003;33067;49.296;14.470;2023-04-30T00:03:19;19;19;
47079;PMS5003;33067;49.296;14.470;2023-04-30T00:05:44;22;21;
47079;PMS5003;33067;49.296;14.470;2023-04-30T00:08:09;25;22;
47079;PMS5003;33067;49.296;14.470;2023-04-30T00:10:35;19;19;
47079;PMS5003;33067;49.296;14.470;2023-04-30T00:13:00;21;21;
47079;PMS5003;33067;49.296;14.470;2023-04-30T00:15:26;24;22;
47079;PMS5003;33067;49.296;14.470;2023-04-30T00:17:52;21;20;
47079;PMS5003;33067;49.296;14.470;2023-04-30T00:20:17;25;23;
47079;PMS5003;33067;49.296;14.470;2023-04-30T00:22:43;24;21;
47079;PMS5003;33067;49.296;14.470;2023-04-30T00:25:08;26;24;
47079;PMS5003;33067;49.296;14.470;2023-04-30T00:27:34;24;23;
47079;PMS5003;33067;49.296;14.470;2023-04-30T00:29:59;24;21;
47079;PMS5003;33067;49.296;14.470;2023-04-30T00:32:24;21;21;
47079;PMS5003;33067;49.296;14.470;2023-04-30T00:34:50;20;20;
47079;PMS5003;33067;49.296;14.470;2023-04-30T00:37:15;24;22;
47079;PMS5003;33067;49.296;14.470;2023-04-30T00:39:41;25;23;
47079;PMS5003;33067;49.296;14.470;2023-04-30T00:42:07;23;23;
47079;PMS5003;33067;49.296;14.470;2023-04-30T00:44:32;26;25;
47079;PMS5003;33067;49.296;14.470;2023-04-30T00:46:59;26;26;
47079;PMS5003;33067;49.296;14.470;2023-04-30T00:49:24;26;26;
47079;PMS5003;33067;49.296;14.470;2023-04-30T00:51:50;27;24;
47079;PMS5003;33067;49.296;14.470;2023-04-30T00:54:15;29;23;
47079;PMS5003;33067;49.296;14.470;2023-04-30T00:56:41;26;25;
47079;PMS5003;33067;49.296;14.470;2023-04-30T00:59:06;25;24;
47079;PMS5003;33067;49.296;14.470;2023-04-30T01:01:32;23;23;
47079;PMS5003;33067;49.296;14.470;2023-04-30T01:03:57;21;21;
47079;PMS5003;33067;49.296;14.470;2023-04-30T01:06:22;23;23;
47079;PMS5003;33067;49.296;14.470;2023-04-30T01:08:48;22;22;
47079;PMS5003;33067;49.296;14.470;2023-04-30T01:11:16;23;22;
47079;PMS5003;33067;49.296;14.470;2023-04-30T01:13:40;25;25;
47079;PMS5003;33067;49.296;14.470;2023-04-30T01:16:06;26;25;
47079;PMS5003;33067;49.296;14.470;2023-04-30T01:18:32;26;24;
47079;PMS5003;33067;49.296;14.470;2023-04-30T01:20:58;30;28;
47079;PMS5003;33067;49.296;14.470;2023-04-30T01:23:24;33;30;
47079;PMS5003;33067;49.296;14.470;2023-04-30T01:25:51;26;26;
47079;PMS5003;33067;49.296;14.470;2023-04-30T01:28:14;33;31;
47079;PMS5003;33067;49.296;14.470;2023-04-30T01:30:37;22;22;
47079;PMS5003;33067;49.296;14.470;2023-04-30T01:33:03;27;23;
47079;PMS5003;33067;49.296;14.470;2023-04-30T01:35:34;23;22;
47079;PMS5003;33067;49.296;14.470;2023-04-30T01:37:57;25;25;
47079;PMS5003;33067;49.296;14.470;2023-04-30T01:40:22;26;26;
47079;PMS5003;33067;49.296;14.470;2023-04-30T01:42:47;26;24;
47079;PMS5003;33067;49.296;14.470;2023-04-30T01:45:13;23;23;
47079;PMS5003;33067;49.296;14.470;2023-04-30T01:47:38;22;21;
47079;PMS5003;33067;49.296;14.470;2023-04-30T01:50:04;32;28;
47079;PMS5003;33067;49.296;14.470;2023-04-30T01:52:28;26;24;
47079;PMS5003;33067;49.296;14.470;2023-04-30T01:54:54;29;28;
47079;PMS5003;33067;49.296;14.470;2023-04-30T01:57:20;32;28;
47079;PMS5003;33067;49.296;14.470;2023-04-30T01:59:42;25;23;
47079;PMS5003;33067;49.296;14.470;2023-04-30T02:02:08;26;24;
47079;PMS5003;33067;49.296;14.470;2023-04-30T02:04:34;22;22;
47079;PMS5003;33067;49.296;14.470;2023-04-30T02:06:59;27;25;
47079;PMS5003;33067;49.296;14.470;2023-04-30T02:09:25;30;30;
47079;PMS5003;33067;49.296;14.470;2023-04-30T02:13:01;30;26;
47079;PMS5003;33067;49.296;14.470;2023-04-30T02:15:26;29;28;
47079;PMS5003;33067;49.296;14.470;2023-04-30T02:17:51;32;32;
47079;PMS5003;33067;49.296;14.470;2023-04-30T02:20:17;29;25;
47079;PMS5003;33067;49.296;14.470;2023-04-30T02:22:42;30;27;
47079;PMS5003;33067;49.296;14.470;2023-04-30T02:25:07;28;28;
47079;PMS5003;33067;49.296;14.470;2023-04-30T02:27:32;26;25;
47079;PMS5003;33067;49.296;14.470;2023-04-30T02:29:58;27;27;
47079;PMS5003;33067;49.296;14.470;2023-04-30T02:32:23;24;23;
47079;PMS5003;33067;49.296;14.470;2023-04-30T02:34:48;30;30;
47079;PMS5003;33067;49.296;14.470;2023-04-30T02:37:15;32;30;
47079;PMS5003;33067;49.296;14.470;2023-04-30T02:39:39;24;22;
47079;PMS5003;33067;49.296;14.470;2023-04-30T02:42:07;25;25;
47079;PMS5003;33067;49.296;14.470;2023-04-30T02:44:31;25;24;
47079;PMS5003;33067;49.296;14.470;2023-04-30T02:46:56;27;25;
47079;PMS5003;33067;49.296;14.470;2023-04-30T02:49:21;29;29;
47079;PMS5003;33067;49.296;14.470;2023-04-30T02:51:47;29;29;
47079;PMS5003;33067;49.296;14.470;2023-04-30T02:54:13;26;26;
47079;PMS5003;33067;49.296;14.470;2023-04-30T02:56:39;30;29;
47079;PMS5003;33067;49.296;14.470;2023-04-30T02:59:04;24;24;
47079;PMS5003;33067;49.296;14.470;2023-04-30T03:01:30;28;28;
47079;PMS5003;33067;49.296;14.470;2023-04-30T03:03:55;27;27;
47079;PMS5003;33067;49.296;14.470;2023-04-30T03:06:21;29;26;
47079;PMS5003;33067;49.296;14.470;2023-04-30T03:08:47;29;26;
47079;PMS5003;33067;49.296;14.470;2023-04-30T03:11:12;27;26;
47079;PMS5003;33067;49.296;14.470;2023-04-30T03:13:37;30;26;
47079;PMS5003;33067;49.296;14.470;2023-04-30T03:16:03;27;26;
47079;PMS5003;33067;49.296;14.470;2023-04-30T03:18:28;28;25;
47079;PMS5003;33067;49.296;14.470;2023-04-30T03:20:53;28;28;
47079;PMS5003;33067;49.296;14.470;2023-04-30T03:23:19;29;29;
47079;PMS5003;33067;49.296;14.470;2023-04-30T03:25:44;32;30;
47079;PMS5003;33067;49.296;14.470;2023-04-30T03:28:09;38;38;
47079;PMS5003;33067;49.296;14.470;2023-04-30T03:30:34;32;32;
47079;PMS5003;33067;49.296;14.470;2023-04-30T03:32:59;30;30;
47079;PMS5003;33067;49.296;14.470;2023-04-30T03:35:24;30;29;
47079;PMS5003;33067;49.296;14.470;2023-04-30T03:37:50;36;34;
47079;PMS5003;33067;49.296;14.470;2023-04-30T03:40:16;33;31;
47079;PMS5003;33067;49.296;14.470;2023-04-30T03:42:42;35;33;
47079;PMS5003;33067;49.296;14.470;2023-04-30T03:45:07;39;39;
47079;PMS5003;33067;49.296;14.470;2023-04-30T03:47:32;38;33;
47079;PMS5003;33067;49.296;14.470;2023-04-30T03:49:57;38;35;
47079;PMS5003;33067;49.296;14.470;2023-04-30T03:52:23;43;38;
47079;PMS5003;33067;49.296;14.470;2023-04-30T03:54:49;36;32;
47079;PMS5003;33067;49.296;14.470;2023-04-30T03:57:15;45;41;
47079;PMS5003;33067;49.296;14.470;2023-04-30T03:59:40;42;36;
47079;PMS5003;33067;49.296;14.470;2023-04-30T04:02:05;66;63;
47079;PMS5003;33067;49.296;14.470;2023-04-30T04:04:31;105;90;
47079;PMS5003;33067;49.296;14.470;2023-04-30T04:06:56;87;79;
47079;PMS5003;33067;49.296;14.470;2023-04-30T04:09:22;137;123;
47079;PMS5003;33067;49.296;14.470;2023-04-30T04:11:48;136;118;
47079;PMS5003;33067;49.296;14.470;2023-04-30T04:14:13;94;87;
47079;PMS5003;33067;49.296;14.470;2023-04-30T04:16:39;94;82;
47079;PMS5003;33067;49.296;14.470;2023-04-30T04:19:04;50;50;
47079;PMS5003;33067;49.296;14.470;2023-04-30T04:21:29;60;53;
47079;PMS5003;33067;49.296;14.470;2023-04-30T04:23:55;47;46;
47079;PMS5003;33067;49.296;14.470;2023-04-30T04:26:20;35;34;
47079;PMS5003;33067;49.296;14.470;2023-04-30T04:28:46;42;39;
47079;PMS5003;33067;49.296;14.470;2023-04-30T04:31:12;35;33;
47079;PMS5003;33067;49.296;14.470;2023-04-30T04:33:37;34;32;
47079;PMS5003;33067;49.296;14.470;2023-04-30T04:36:03;32;31;
47079;PMS5003;33067;49.296;14.470;2023-04-30T04:38:28;29;28;
47079;PMS5003;33067;49.296;14.470;2023-04-30T04:40:54;31;29;
47079;PMS5003;33067;49.296;14.470;2023-04-30T04:43:19;35;32;
47079;PMS5003;33067;49.296;14.470;2023-04-30T04:45:44;34;32;
47079;PMS5003;33067;49.296;14.470;2023-04-30T04:48:09;33;31;
47079;PMS5003;33067;49.296;14.470;2023-04-30T04:50:34;33;32;
47079;PMS5003;33067;49.296;14.470;2023-04-30T04:53:00;35;33;
47079;PMS5003;33067;49.296;14.470;2023-04-30T04:55:26;41;38;
47079;PMS5003;33067;49.296;14.470;2023-04-30T04:57:51;34;30;
47079;PMS5003;33067;49.296;14.470;2023-04-30T05:00:16;33;31;
47079;PMS5003;33067;49.296;14.470;2023-04-30T05:02:42;31;29;
47079;PMS5003;33067;49.296;14.470;2023-04-30T05:05:08;41;38;
47079;PMS5003;33067;49.296;14.470;2023-04-30T05:07:32;43;40;
47079;PMS5003;33067;49.296;14.470;2023-04-30T05:09:58;41;39;
47079;PMS5003;33067;49.296;14.470;2023-04-30T05:12:23;41;39;
47079;PMS5003;33067;49.296;14.470;2023-04-30T05:14:49;39;36;
47079;PMS5003;33067;49.296;14.470;2023-04-30T05:17:15;37;37;
47079;PMS5003;33067;49.296;14.470;2023-04-30T05:19:40;40;39;
47079;PMS5003;33067;49.296;14.470;2023-04-30T05:22:06;39;35;
47079;PMS5003;33067;49.296;14.470;2023-04-30T05:24:31;33;33;
47079;PMS5003;33067;49.296;14.470;2023-04-30T05:26:56;35;31;
47079;PMS5003;33067;49.296;14.470;2023-04-30T05:29:23;42;36;
47079;PMS5003;33067;49.296;14.470;2023-04-30T05:31:47;38;36;
47079;PMS5003;33067;49.296;14.470;2023-04-30T05:34:13;49;47;
47079;PMS5003;33067;49.296;14.470;2023-04-30T05:36:38;41;41;
47079;PMS5003;33067;49.296;14.470;2023-04-30T05:39:04;42;38;
47079;PMS5003;33067;49.296;14.470;2023-04-30T05:41:29;43;41;
47079;PMS5003;33067;49.296;14.470;2023-04-30T05:43:54;40;39;
47079;PMS5003;33067;49.296;14.470;2023-04-30T05:46:20;44;42;
47079;PMS5003;33067;49.296;14.470;2023-04-30T05:48:45;40;39;
47079;PMS5003;33067;49.296;14.470;2023-04-30T05:51:11;50;47;
47079;PMS5003;33067;49.296;14.470;2023-04-30T05:53:36;38;38;
47079;PMS5003;33067;49.296;14.470;2023-04-30T05:56:01;47;46;
47079;PMS5003;33067;49.296;14.470;2023-04-30T05:58:26;40;39;
47079;PMS5003;33067;49.296;14.470;2023-04-30T06:00:51;40;38;
47079;PMS5003;33067;49.296;14.470;2023-04-30T06:03:17;46;43;
47079;PMS5003;33067;49.296;14.470;2023-04-30T06:05:42;41;38;
47079;PMS5003;33067;49.296;14.470;2023-04-30T06:08:07;42;37;
47079;PMS5003;33067;49.296;14.470;2023-04-30T06:10:33;40;40;
47079;PMS5003;33067;49.296;14.470;2023-04-30T06:12:58;45;40;
47079;PMS5003;33067;49.296;14.470;2023-04-30T06:15:23;31;31;
47079;PMS5003;33067;49.296;14.470;2023-04-30T06:17:48;39;38;
47079;PMS5003;33067;49.296;14.470;2023-04-30T06:20:14;40;34;
47079;PMS5003;33067;49.296;14.470;2023-04-30T06:22:40;37;33;
47079;PMS5003;33067;49.296;14.470;2023-04-30T06:25:05;35;34;
47079;PMS5003;33067;49.296;14.470;2023-04-30T06:27:30;34;32;
47079;PMS5003;33067;49.296;14.470;2023-04-30T06:29:56;35;32;
47079;PMS5003;33067;49.296;14.470;2023-04-30T06:32:21;37;32;
47079;PMS5003;33067;49.296;14.470;2023-04-30T06:34:47;35;34;
47079;PMS5003;33067;49.296;14.470;2023-04-30T06:37:12;30;30;
47079;PMS5003;33067;49.296;14.470;2023-04-30T06:39:38;34;33;
47079;PMS5003;33067;49.296;14.470;2023-04-30T06:42:04;36;34;
47079;PMS5003;33067;49.296;14.470;2023-04-30T06:44:29;38;32;
47079;PMS5003;33067;49.296;14.470;2023-04-30T06:46:54;32;30;
47079;PMS5003;33067;49.296;14.470;2023-04-30T06:49:20;34;33;
47079;PMS5003;33067;49.296;14.470;2023-04-30T06:51:45;27;27;
47079;PMS5003;33067;49.296;14.470;2023-04-30T06:54:11;38;36;
47079;PMS5003;33067;49.296;14.470;2023-04-30T06:56:36;29;29;
47079;PMS5003;33067;49.296;14.470;2023-04-30T06:59:02;34;32;
47079;PMS5003;33067;49.296;14.470;2023-04-30T07:01:28;29;28;
47079;PMS5003;33067;49.296;14.470;2023-04-30T07:03:54;34;34;
47079;PMS5003;33067;49.296;14.470;2023-04-30T07:06:19;30;28;
47079;PMS5003;33067;49.296;14.470;2023-04-30T07:08:45;31;29;
47079;PMS5003;33067;49.296;14.470;2023-04-30T07:11:10;30;26;
47079;PMS5003;33067;49.296;14.470;2023-04-30T07:13:36;28;28;
47079;PMS5003;33067;49.296;14.470;2023-04-30T07:16:02;29;27;
47079;PMS5003;33067;49.296;14.470;2023-04-30T07:18:27;29;29;
47079;PMS5003;33067;49.296;14.470;2023-04-30T07:20:53;38;37;
47079;PMS5003;33067;49.296;14.470;2023-04-30T07:23:18;29;28;
47079;PMS5003;33067;49.296;14.470;2023-04-30T07:25:44;26;25;
47079;PMS5003;33067;49.296;14.470;2023-04-30T07:28:09;26;25;
47079;PMS5003;33067;49.296;14.470;2023-04-30T07:30:35;37;36;
47079;PMS5003;33067;49.296;14.470;2023-04-30T07:33:01;36;31;
47079;PMS5003;33067;49.296;14.470;2023-04-30T07:35:26;27;27;
47079;PMS5003;33067;49.296;14.470;2023-04-30T07:37:52;29;29;
47079;PMS5003;33067;49.296;14.470;2023-04-30T07:40:18;28;28;
47079;PMS5003;33067;49.296;14.470;2023-04-30T07:42:43;29;29;
47079;PMS5003;33067;49.296;14.470;2023-04-30T07:45:09;31;31;
47079;PMS5003;33067;49.296;14.470;2023-04-30T07:47:34;36;32;
47079;PMS5003;33067;49.296;14.470;2023-04-30T07:50:00;37;35;
47079;PMS5003;33067;49.296;14.470;2023-04-30T07:52:25;36;32;
47079;PMS5003;33067;49.296;14.470;2023-04-30T07:54:51;25;24;
47079;PMS5003;33067;49.296;14.470;2023-04-30T07:57:17;31;30;
47079;PMS5003;33067;49.296;14.470;2023-04-30T07:59:42;30;28;
47079;PMS5003;33067;49.296;14.470;2023-04-30T08:02:08;29;26;
47079;PMS5003;33067;49.296;14.470;2023-04-30T08:04:34;32;31;
47079;PMS5003;33067;49.296;14.470;2023-04-30T08:06:59;34;33;
47079;PMS5003;33067;49.296;14.470;2023-04-30T08:09:24;39;37;
47079;PMS5003;33067;49.296;14.470;2023-04-30T08:11:51;42;40;
47079;PMS5003;33067;49.296;14.470;2023-04-30T08:14:15;62;57;
47079;PMS5003;33067;49.296;14.470;2023-04-30T08:16:44;33;33;
47079;PMS5003;33067;49.296;14.470;2023-04-30T08:19:06;26;26;
47079;PMS5003;33067;49.296;14.470;2023-04-30T08:21:32;34;32;
47079;PMS5003;33067;49.296;14.470;2023-04-30T08:23:58;22;22;
47079;PMS5003;33067;49.296;14.470;2023-04-30T08:26:24;26;26;
47079;PMS5003;33067;49.296;14.470;2023-04-30T08:28:48;28;28;
47079;PMS5003;33067;49.296;14.470;2023-04-30T08:31:13;28;28;
47079;PMS5003;33067;49.296;14.470;2023-04-30T08:33:39;26;25;
47079;PMS5003;33067;49.296;14.470;2023-04-30T08:36:05;29;27;
47079;PMS5003;33067;49.296;14.470;2023-04-30T08:38:30;28;25;
47079;PMS5003;33067;49.296;14.470;2023-04-30T08:40:59;24;22;
47079;PMS5003;33067;49.296;14.470;2023-04-30T08:43:21;25;24;
47079;PMS5003;33067;49.296;14.470;2023-04-30T08:45:47;27;21;
47079;PMS5003;33067;49.296;14.470;2023-04-30T08:48:12;17;17;
47079;PMS5003;33067;49.296;14.470;2023-04-30T08:50:37;20;18;
47079;PMS5003;33067;49.296;14.470;2023-04-30T08:53:03;18;17;
47079;PMS5003;33067;49.296;14.470;2023-04-30T08:55:28;15;15;
47079;PMS5003;33067;49.296;14.470;2023-04-30T08:57:54;14;14;
47079;PMS5003;33067;49.296;14.470;2023-04-30T09:00:19;18;16;
47079;PMS5003;33067;49.296;14.470;2023-04-30T09:02:44;14;12;
47079;PMS5003;33067;49.296;14.470;2023-04-30T09:05:10;14;14;
47079;PMS5003;33067;49.296;14.470;2023-04-30T09:07:36;15;15;
47079;PMS5003;33067;49.296;14.470;2023-04-30T09:10:01;17;16;
47079;PMS5003;33067;49.296;14.470;2023-04-30T09:12:27;11;11;
47079;PMS5003;33067;49.296;14.470;2023-04-30T09:14:58;14;14;
47079;PMS5003;33067;49.296;14.470;2023-04-30T09:17:20;18;17;
47079;PMS5003;33067;49.296;14.470;2023-04-30T09:19:43;16;15;
47079;PMS5003;33067;49.296;14.470;2023-04-30T09:22:18;15;15;
47079;PMS5003;33067;49.296;14.470;2023-04-30T09:24:44;14;14;
47079;PMS5003;33067;49.296;14.470;2023-04-30T09:26:59;11;10;
47079;PMS5003;33067;49.296;14.470;2023-04-30T09:31:50;11;11;
47079;PMS5003;33067;49.296;14.470;2023-04-30T09:34:15;11;9;
47079;PMS5003;33067;49.296;14.470;2023-04-30T09:39:06;12;12;
47079;PMS5003;33067;49.296;14.470;2023-04-30T09:41:31;13;12;
47079;PMS5003;33067;49.296;14.470;2023-04-30T09:43:56;11;10;
47079;PMS5003;33067;49.296;14.470;2023-04-30T09:46:21;14;12;
47079;PMS5003;33067;49.296;14.470;2023-04-30T09:48:48;12;12;
47079;PMS5003;33067;49.296;14.470;2023-04-30T09:51:11;11;11;
47079;PMS5003;33067;49.296;14.470;2023-04-30T09:53:37;11;11;
47079;PMS5003;33067;49.296;14.470;2023-04-30T09:56:02;13;13;
47079;PMS5003;33067;49.296;14.470;2023-04-30T09:58:27;18;17;
47079;PMS5003;33067;49.296;14.470;2023-04-30T10:00:52;19;16;
47079;PMS5003;33067;49.296;14.470;2023-04-30T10:03:18;18;16;
47079;PMS5003;33067;49.296;14.470;2023-04-30T10:05:44;24;23;
47079;PMS5003;33067;49.296;14.470;2023-04-30T10:08:12;16;16;
47079;PMS5003;33067;49.296;14.470;2023-04-30T10:10:35;16;15;
47079;PMS5003;33067;49.296;14.470;2023-04-30T10:13:02;16;16;
47079;PMS5003;33067;49.296;14.470;2023-04-30T10:15:27;19;18;
47079;PMS5003;33067;49.296;14.470;2023-04-30T10:17:53;15;15;
47079;PMS5003;33067;49.296;14.470;2023-04-30T10:20:16;16;16;
47079;PMS5003;33067;49.296;14.470;2023-04-30T10:22:42;15;14;
47079;PMS5003;33067;49.296;14.470;2023-04-30T10:25:08;13;13;
47079;PMS5003;33067;49.296;14.470;2023-04-30T10:27:33;15;14;
47079;PMS5003;33067;49.296;14.470;2023-04-30T10:29:58;12;12;
47079;PMS5003;33067;49.296;14.470;2023-04-30T10:32:24;11;11;
47079;PMS5003;33067;49.296;14.470;2023-04-30T10:35:05;11;10;
47079;PMS5003;33067;49.296;14.470;2023-04-30T10:37:17;14;14;
47079;PMS5003;33067;49.296;14.470;2023-04-30T10:39:39;13;13;
47079;PMS5003;33067;49.296;14.470;2023-04-30T10:42:05;9;9;
47079;PMS5003;33067;49.296;14.470;2023-04-30T10:44:31;22;20;
47079;PMS5003;33067;49.296;14.470;2023-04-30T10:46:57;13;12;
47079;PMS5003;33067;49.296;14.470;2023-04-30T10:49:23;12;12;
47079;PMS5003;33067;49.296;14.470;2023-04-30T10:51:47;12;12;
47079;PMS5003;33067;49.296;14.470;2023-04-30T10:54:12;18;16;
47079;PMS5003;33067;49.296;14.470;2023-04-30T10:56:37;12;12;
47079;PMS5003;33067;49.296;14.470;2023-04-30T10:59:02;13;13;
47079;PMS5003;33067;49.296;14.470;2023-04-30T11:01:28;14;14;
47079;PMS5003;33067;49.296;14.470;2023-04-30T11:06:18;18;18;
47079;PMS5003;33067;49.296;14.470;2023-04-30T11:08:45;14;14;
47079;PMS5003;33067;49.296;14.470;2023-04-30T11:11:09;11;11;
47079;PMS5003;33067;49.296;14.470;2023-04-30T11:13:38;10;10;
47079;PMS5003;33067;49.296;14.470;2023-04-30T11:16:01;13;13;
47079;PMS5003;33067;49.296;14.470;2023-04-30T11:18:26;9;9;
47079;PMS5003;33067;49.296;14.470;2023-04-30T11:20:50;12;11;
47079;PMS5003;33067;49.296;14.470;2023-04-30T11:23:15;13;12;
47079;PMS5003;33067;49.296;14.470;2023-04-30T11:25:41;12;12;
47079;PMS5003;33067;49.296;14.470;2023-04-30T11:28:06;12;12;
47079;PMS5003;33067;49.296;14.470;2023-04-30T11:30:31;9;9;
47079;PMS5003;33067;49.296;14.470;2023-04-30T11:32:58;12;12;
47079;PMS5003;33067;49.296;14.470;2023-04-30T11:35:21;11;11;
47079;PMS5003;33067;49.296;14.470;2023-04-30T11:37:46;15;12;
47079;PMS5003;33067;49.296;14.470;2023-04-30T11:40:12;12;12;
47079;PMS5003;33067;49.296;14.470;2023-04-30T11:42:37;12;10;
47079;PMS5003;33067;49.296;14.470;2023-04-30T11:45:02;11;11;
47079;PMS5003;33067;49.296;14.470;2023-04-30T11:47:27;13;13;
47079;PMS5003;33067;49.296;14.470;2023-04-30T11:49:51;11;10;
47079;PMS5003;33067;49.296;14.470;2023-04-30T11:52:19;11;11;
47079;PMS5003;33067;49.296;14.470;2023-04-30T11:54:42;9;8;
47079;PMS5003;33067;49.296;14.470;2023-04-30T11:57:07;11;10;
47079;PMS5003;33067;49.296;14.470;2023-04-30T11:59:38;12;12;
47079;PMS5003;33067;49.296;14.470;2023-04-30T12:01:57;13;13;
47079;PMS5003;33067;49.296;14.470;2023-04-30T12:04:22;14;14;
47079;PMS5003;33067;49.296;14.470;2023-04-30T12:06:48;13;13;
47079;PMS5003;33067;49.296;14.470;2023-04-30T12:09:13;10;10;
47079;PMS5003;33067;49.296;14.470;2023-04-30T12:11:38;15;12;
47079;PMS5003;33067;49.296;14.470;2023-04-30T12:14:04;12;12;
47079;PMS5003;33067;49.296;14.470;2023-04-30T12:16:37;15;15;
47079;PMS5003;33067;49.296;14.470;2023-04-30T12:18:53;11;11;
47079;PMS5003;33067;49.296;14.470;2023-04-30T12:21:19;11;11;
47079;PMS5003;33067;49.296;14.470;2023-04-30T12:23:43;12;12;
47079;PMS5003;33067;49.296;14.470;2023-04-30T12:26:08;12;11;
47079;PMS5003;33067;49.296;14.470;2023-04-30T12:28:34;14;12;
47079;PMS5003;33067;49.296;14.470;2023-04-30T12:30:59;10;10;
47079;PMS5003;33067;49.296;14.470;2023-04-30T12:33:24;11;11;
47079;PMS5003;33067;49.296;14.470;2023-04-30T12:35:51;11;10;
47079;PMS5003;33067;49.296;14.470;2023-04-30T12:38:15;10;10;
47079;PMS5003;33067;49.296;14.470;2023-04-30T12:40:39;10;8;
47079;PMS5003;33067;49.296;14.470;2023-04-30T12:43:06;11;11;
47079;PMS5003;33067;49.296;14.470;2023-04-30T12:47:55;13;13;
47079;PMS5003;33067;49.296;14.470;2023-04-30T12:50:20;19;19;
47079;PMS5003;33067;49.296;14.470;2023-04-30T12:52:46;17;17;
47079;PMS5003;33067;49.296;14.470;2023-04-30T12:55:15;12;11;
47079;PMS5003;33067;49.296;14.470;2023-04-30T12:57:37;21;21;
47079;PMS5003;33067;49.296;14.470;2023-04-30T13:00:02;12;12;
47079;PMS5003;33067;49.296;14.470;2023-04-30T13:02:27;10;10;
47079;PMS5003;33067;49.296;14.470;2023-04-30T13:04:53;14;14;
47079;PMS5003;33067;49.296;14.470;2023-04-30T13:07:18;15;15;
47079;PMS5003;33067;49.296;14.470;2023-04-30T13:09:44;17;17;
47079;PMS5003;33067;49.296;14.470;2023-04-30T13:12:09;16;16;
47079;PMS5003;33067;49.296;14.470;2023-04-30T13:14:35;48;46;
47079;PMS5003;33067;49.296;14.470;2023-04-30T13:17:00;28;26;
47079;PMS5003;33067;49.296;14.470;2023-04-30T13:19:26;32;29;
47079;PMS5003;33067;49.296;14.470;2023-04-30T13:21:52;36;35;
47079;PMS5003;33067;49.296;14.470;2023-04-30T13:24:18;87;82;
47079;PMS5003;33067;49.296;14.470;2023-04-30T13:26:44;146;128;
47079;PMS5003;33067;49.296;14.470;2023-04-30T13:29:07;143;133;
47079;PMS5003;33067;49.296;14.470;2023-04-30T13:31:33;32;30;
47079;PMS5003;33067;49.296;14.470;2023-04-30T13:33:59;13;13;
47079;PMS5003;33067;49.296;14.470;2023-04-30T13:36:24;13;13;
47079;PMS5003;33067;49.296;14.470;2023-04-30T13:38:49;20;20;
47079;PMS5003;33067;49.296;14.470;2023-04-30T13:41:15;21;21;
47079;PMS5003;33067;49.296;14.470;2023-04-30T13:43:41;32;29;
47079;PMS5003;33067;49.296;14.470;2023-04-30T13:46:06;14;14;
47079;PMS5003;33067;49.296;14.470;2023-04-30T13:48:32;15;15;
47079;PMS5003;33067;49.296;14.470;2023-04-30T13:50:57;93;86;
47079;PMS5003;33067;49.296;14.470;2023-04-30T13:53:23;32;32;
47079;PMS5003;33067;49.296;14.470;2023-04-30T13:55:48;22;19;
47079;PMS5003;33067;49.296;14.470;2023-04-30T13:58:13;15;15;
47079;PMS5003;33067;49.296;14.470;2023-04-30T14:00:39;14;14;
47079;PMS5003;33067;49.296;14.470;2023-04-30T14:03:04;21;20;
47079;PMS5003;33067;49.296;14.470;2023-04-30T14:05:30;15;15;
47079;PMS5003;33067;49.296;14.470;2023-04-30T14:07:55;26;26;
47079;PMS5003;33067;49.296;14.470;2023-04-30T14:10:20;28;28;
47079;PMS5003;33067;49.296;14.470;2023-04-30T14:12:45;88;86;
47079;PMS5003;33067;49.296;14.470;2023-04-30T14:15:11;89;85;
47079;PMS5003;33067;49.296;14.470;2023-04-30T14:17:36;17;17;
47079;PMS5003;33067;49.296;14.470;2023-04-30T14:20:02;20;20;
47079;PMS5003;33067;49.296;14.470;2023-04-30T14:22:27;15;15;
47079;PMS5003;33067;49.296;14.470;2023-04-30T14:24:53;146;140;
47079;PMS5003;33067;49.296;14.470;2023-04-30T14:27:18;99;94;
47079;PMS5003;33067;49.296;14.470;2023-04-30T14:29:43;12;12;
47079;PMS5003;33067;49.296;14.470;2023-04-30T14:32:09;17;16;
47079;PMS5003;33067;49.296;14.470;2023-04-30T14:34:34;15;15;
47079;PMS5003;33067;49.296;14.470;2023-04-30T14:37:00;15;14;
47079;PMS5003;33067;49.296;14.470;2023-04-30T14:39:24;14;14;
47079;PMS5003;33067;49.296;14.470;2023-04-30T14:41:49;12;12;
47079;PMS5003;33067;49.296;14.470;2023-04-30T14:44:14;11;11;
47079;PMS5003;33067;49.296;14.470;2023-04-30T14:46:39;17;16;
47079;PMS5003;33067;49.296;14.470;2023-04-30T14:49:05;33;33;
47079;PMS5003;33067;49.296;14.470;2023-04-30T14:51:30;42;41;
47079;PMS5003;33067;49.296;14.470;2023-04-30T14:53:56;15;13;
47079;PMS5003;33067;49.296;14.470;2023-04-30T14:56:22;21;20;
47079;PMS5003;33067;49.296;14.470;2023-04-30T14:58:47;14;13;
47079;PMS5003;33067;49.296;14.470;2023-04-30T15:01:12;144;139;
47079;PMS5003;33067;49.296;14.470;2023-04-30T15:03:38;43;43;
47079;PMS5003;33067;49.296;14.470;2023-04-30T15:06:03;39;39;
47079;PMS5003;33067;49.296;14.470;2023-04-30T15:08:28;14;12;
47079;PMS5003;33067;49.296;14.470;2023-04-30T15:10:54;48;45;
47079;PMS5003;33067;49.296;14.470;2023-04-30T15:13:19;19;18;
47079;PMS5003;33067;49.296;14.470;2023-04-30T15:15:44;15;15;
47079;PMS5003;33067;49.296;14.470;2023-04-30T15:18:10;14;14;
47079;PMS5003;33067;49.296;14.470;2023-04-30T15:20:35;11;11;
47079;PMS5003;33067;49.296;14.470;2023-04-30T15:23:00;14;14;
47079;PMS5003;33067;49.296;14.470;2023-04-30T15:25:26;28;28;
47079;PMS5003;33067;49.296;14.470;2023-04-30T15:27:52;15;14;
47079;PMS5003;33067;49.296;14.470;2023-04-30T15:30:17;10;10;
47079;PMS5003;33067;49.296;14.470;2023-04-30T15:32:42;9;9;
47079;PMS5003;33067;49.296;14.470;2023-04-30T15:35:07;10;10;
47079;PMS5003;33067;49.296;14.470;2023-04-30T15:37:32;36;35;
47079;PMS5003;33067;49.296;14.470;2023-04-30T15:39:58;71;67;
47079;PMS5003;33067;49.296;14.470;2023-04-30T15:42:23;15;15;
47079;PMS5003;33067;49.296;14.470;2023-04-30T15:44:49;11;11;
47079;PMS5003;33067;49.296;14.470;2023-04-30T15:47:14;32;32;
47079;PMS5003;33067;49.296;14.470;2023-04-30T15:49:39;20;19;
47079;PMS5003;33067;49.296;14.470;2023-04-30T15:52:05;16;13;
47079;PMS5003;33067;49.296;14.470;2023-04-30T15:54:30;12;12;
47079;PMS5003;33067;49.296;14.470;2023-04-30T15:56:55;14;14;
47079;PMS5003;33067;49.296;14.470;2023-04-30T15:59:20;17;15;